logo
Search for airport 
image banner adimage banner adimage banner ad
image banner ad

EDST - Hahnweide

Located in , Germany

ICAO - EDST, IATA -

Data provided by Airmate  

General information

Coordinates: N48°37'55" E9°25'46"
Elevation is 1167 feet MSL.
Magnetic variation is 4.0000° East
View others Airports in Baden-Württemberg

Operational data

Special qualification required
Current time UTC:
Current local time:
Weather at : EDDS - Stuttgart ( 17 km )
METAR: EDDS 161950Z AUTO 24005KT CAVOK 19/12 Q1019 NOSIG
TAF: TAF EDDS 161700Z 1618/1718 24008KT CAVOK BECMG 1619/1621 VRB03KT BECMG 1709/1711 27005KT
View NOTAMs / SUP AIP / TFR affecting this airport [VIEW]
Communications frequencies: [VIEW]

Runways:

RWY identifierQFULength (ft)Width (ft)SurfaceLDA (ft)
12L127°210098GRASS2100
30R307°210098GRASS2100
0668°170698GRASS1706
24248°170698GRASS1706
12R127°210098GRASS2100
30L307°210098GRASS2100

Airport contact information

Address: Germany

Other aviation service providers

Aviation club (not for profit)

Fliegergruppe Nellingen E.V.

Fliegergruppe Nellingen E.V.
+49711 3482873

Sportflieger-Club Stuttgart E.V.

Sportflieger-Club Stuttgart E.V.

Satellite view of EDST